Tiempo atmosférico en la estación meteorológica de Aroche, Huelva (260 m.)



Fecha
DESCASC
Temp. máxima en grados centígrados (hora)
DESCASC
Temp. mínima en grados centígrados (hora)
DESCASC
Temp. media en grados centígrados
DESCASC
Racha de viento máxima en m/sg (hora)
DESCASC
Velocidad máxima media en intervalos de 10 minutos(hora)
DESCASC
Precipitaciones diarias en mm
DESCASC
Precipitaciones de 00:00 a 06:00 en mm
DESCASC
Precipitaciones de 06:00 a 12:00 en mm
DESCASC
Precipitaciones de 12:00 a 18:00 en mm
DESCASC
Precipitaciones de 18:00 a 24:00 en mm
DESCASC
17-08-2018 35.4 (17:50) 14 (07:30) 24.7 7.5 (16:30) 3.61 (16:10) 0 0 0 0 0
16-08-2018 33.6 (16:50) 10.5 (07:40) 22 8.33 (17:50) 4.72 (17:50) 0 0 0 0 0
15-08-2018 34.9 (17:10) 12.9 (07:30) 23.9 8.61 (18:50) 5 (18:40) 0 0 0 0 0
14-08-2018 36.2 (17:40) 10.8 (08:00) 23.5 6.94 (16:10) 3.89 (19:20) 0 0 0 0 0
13-08-2018 33.8 (17:50) 17.4 (06:20) 25.6 7.5 (18:10) 4.17 (16:10) 0 0 0 0 0
12-08-2018 36.3 (15:50) 15.6 (00:00) 25.9 10.28 (16:50) 5 (19:20) 0 0 0 0 0
11-08-2018 37.9 (16:40) 13 (00:00) 25.5 6.67 (17:50) 3.89 (18:10) 0 0 0 0 0
10-08-2018 35.2 (18:00) 10.5 (00:00) 22.9 7.5 (16:30) 4.17 (16:30) 0 0 0 0 0
09-08-2018 30.8 (18:20) 16.6 (00:00) 23.7 8.89 (01:30) 5 (15:00) 0 0 0 0 0
08-08-2018 33 (18:00) 12.3 (00:00) 22.7 10.28 (19:50) 6.11 (20:40) 0 0 0 0 0
07-08-2018 34.9 (17:10) 17.4 (00:00) 26.2 8.61 (17:30) 5 (21:10) 0 0 0 0 0
06-08-2018 42.8 (16:40) 19.6 (00:00) 31.2 8.89 (19:40) 5 (19:30) 0 0 0 0 0
05-08-2018 43.6 (16:10) 20.8 (00:00) 32.2 10.83 (18:00) 5.83 (13:50) 0 0 0 0 0
04-08-2018 44.2 (15:00) 20.8 (06:40) 32.5 10.28 (19:00) 5.56 (17:10) 0 0 0 0 0
03-08-2018 44.4 (16:20) 18.8 (00:00) 31.6 8.33 (19:20) 4.72 (16:50) 0 0 0 0 0
02-08-2018 43 (18:00) 19.7 (00:00) 31.4 10 (14:40) 5.28 (15:30) 0 0 0 0 0
01-08-2018 41.9 (17:10) 15.1 (07:50) 28.5 7.78 (13:00) 3.89 (17:40) 0 0 0 0 0
31-07-2018 35.5 (18:30) 14.2 (00:00) 24.8 6.39 (19:30) 3.89 (18:50) 0 0 0 0 0
30-07-2018 33.2 (18:50) 10.7 (00:00) 22 7.78 (18:40) 4.17 (18:10) 0 0 0 0 0
29-07-2018 31.1 (18:20) 14.8 (00:00) 23 8.61 (17:40) 4.44 (15:00) 0 0 0 0 0
28-07-2018 32.5 (17:50) 10.5 (00:00) 21.5 8.61 (19:40) 4.72 (19:50) 0 0 0 0 0
27-07-2018 33.9 (18:00) 11.5 (00:00) 22.7 9.17 (16:50) 5 (19:20) 0 0 0 0 0
26-07-2018 32.8 (18:00) 14.9 (00:00) 23.8 8.33 (16:30) 4.17 (23:30) 0 0 0 0 0
25-07-2018 32.7 (17:00) 12 (00:00) 22.4 8.33 (14:20) 4.44 (18:40) 0 0 0 0 0
24-07-2018 32.3 (17:40) 10.5 (00:00) 21.4 7.5 (18:10) 4.72 (20:30) 0 0 0 0 0
23-07-2018 34.9 (17:50) 12.3 (00:00) 23.6 8.89 (21:50) 4.72 (17:30) 0 0 0 0 0
22-07-2018 34.3 (17:40) 11.7 (00:00) 23 9.72 (15:50) 4.72 (15:50) 0 0 0 0 0
21-07-2018 34.1 (18:00) 11.7 (00:00) 22.9 8.06 (23:40) 5 (19:00) 0 0 0 0 0
20-07-2018 31.9 (19:10) 15.7 (00:00) 23.8 10.83 (13:50) 5.28 (22:30) 0 0 0 0 0

Gráficas

Temp. máximas Temp. mínimas Temp. medias Precipitaciones Rachas de viento máximas Velocidades máximas media en intervalos de 10 minutos

Datos horarios

Fecha y hora oficial Temperatura (ºC) Velocidad del viento (km/h) Dirección del viento Racha (km/h) Dirección de racha Precipitación (mm) Presión (hPa) Tendencia (hPa) Humedad (%)
2018-08-18 23:00:00 29 4 Norte 15 Nordeste 0 -- -- 34
2018-08-18 22:00:00 31.9 7 Norte 21 Noroeste 0 -- -- 29
2018-08-18 21:00:00 33.7 13 Norte 27 Noroeste 0 -- -- 26
2018-08-18 20:00:00 35.5 14 Noroeste 24 Noroeste 0 -- -- 25
2018-08-18 19:00:00 37.1 7 Noroeste 14 Noroeste 0 -- -- 23
2018-08-18 18:00:00 36.6 8 Nordeste 26 Sur 0 -- -- 23
2018-08-18 17:00:00 37.7 9 Noroeste 22 Oeste 0 -- -- 22
2018-08-18 16:00:00 37.1 7 Sur 22 Este 0 -- -- 24
2018-08-18 15:00:00 38.1 9 Sur 17 Sudoeste 0 -- -- 24
2018-08-18 14:00:00 37.1 7 Sur 17 Este 0 -- -- 25
2018-08-18 13:00:00 34.6 6 Sur 14 Sudoeste 0 -- -- 27
2018-08-18 12:00:00 33.3 9 Sudeste 17 Este 0 -- -- 28
2018-08-18 11:00:00 30.6 3 Noroeste 6 Noroeste 0 -- -- 33
2018-08-18 10:00:00 26.2 2 Sur 5 Sur 0 -- -- 44
2018-08-18 09:00:00 18.4 0 Calma 6 Norte 0 -- -- 65
2018-08-18 08:00:00 15.8 2 Este 5 Sudeste 0 -- -- 73
2018-08-18 07:00:00 16 2 Sudeste 7 Este 0 -- -- 71
2018-08-18 06:00:00 16.2 0 Calma 3 Sur 0 -- -- 69
2018-08-18 05:00:00 17 0 Calma 4 Sudeste 0 -- -- 66
2018-08-18 04:00:00 17.9 0 Calma 4 Sudeste 0 -- -- 62
2018-08-18 03:00:00 18.6 4 Este 5 Este 0 -- -- 60
2018-08-18 02:00:00 19.2 0 Calma 7 Nordeste 0 -- -- 58
2018-08-18 01:00:00 20.4 3 Este 5 Este 0 -- -- 55
2018-08-18 00:00:00 21.6 3 Este 6 Este 0 -- -- 52
2018-08-17 23:00:00 23.4 3 Nordeste 6 Norte 0 -- -- 47
2018-08-17 22:00:00 26.3 0 Calma 8 Sudoeste 0 -- -- 41
2018-08-17 21:00:00 30.1 4 Noroeste 17 Noroeste 0 -- -- 34
2018-08-17 20:00:00 31.7 11 Noroeste 22 Noroeste 0 -- -- 32
2018-08-17 19:00:00 32.6 12 Noroeste 23 Oeste 0 -- -- 31
2018-08-17 18:00:00 35.3 10 Oeste 22 Oeste 0 -- -- 27
2018-08-17 17:00:00 34.7 12 Oeste 27 Oeste 0 -- -- 28
2018-08-17 16:00:00 33.9 9 Noroeste 22 Oeste 0 -- -- 29
2018-08-17 15:00:00 32.9 9 Oeste 21 Oeste 0 -- -- 32
2018-08-17 14:00:00 31.2 12 Oeste 22 Oeste 0 -- -- 36
2018-08-17 13:00:00 29.4 10 Oeste 22 Noroeste 0 -- -- 41
2018-08-17 12:00:00 26.9 9 Noroeste 18 Noroeste 0 -- -- 49
2018-08-17 11:00:00 24.6 3 Norte 8 Noroeste 0 -- -- 55
2018-08-17 10:00:00 21.9 4 Sudeste 6 Este 0 -- -- 64
2018-08-17 09:00:00 16.9 0 Calma 4 Este 0 -- -- 82
2018-08-17 08:00:00 14.2 0 Calma 3 Este 0 -- -- 89
2018-08-17 07:00:00 14.3 0 Calma 4 Nordeste 0 -- -- 85
2018-08-17 06:00:00 14.9 3 Sur 5 Sur 0 -- -- 86
2018-08-17 05:00:00 16 0 Calma 5 Este 0 -- -- 82
2018-08-17 04:00:00 16.7 3 Este 5 Este 0 -- -- 78
2018-08-17 03:00:00 17.6 3 Nordeste 6 Nordeste 0 -- -- 76
2018-08-17 02:00:00 18.5 0 Calma 5 Este 0 -- -- 72
2018-08-17 01:00:00 19.4 3 Nordeste 4 Este 0 -- -- 69
2018-08-17 00:00:00 21 2 Nordeste 6 Oeste 0 -- -- 64
2018-08-16 23:00:00 22.6 0 Calma 7 Noroeste 0 -- -- 59
2018-08-16 22:00:00 25.2 3 Sudeste 22 Sur 0 -- -- 52
2018-08-16 21:00:00 28.5 11 Sur 26 Oeste 0 -- -- 44
2018-08-16 20:00:00 32.1 14 Oeste 28 Oeste 0 -- -- 34
2018-08-16 19:00:00 33.1 10 Oeste 23 Oeste 0 -- -- 32
2018-08-16 18:00:00 32.9 11 Oeste 30 Noroeste 0 -- -- 34
2018-08-16 17:00:00 33.5 9 Oeste 20 Sur 0 -- -- 34
2018-08-16 16:00:00 32.8 9 Sudoeste 21 Sur 0 -- -- 36
2018-08-16 15:00:00 32 10 Sur 22 Sudoeste 0 -- -- 39
2018-08-16 14:00:00 30.9 10 Sur 22 Sur 0 -- -- 42
2018-08-16 13:00:00 28.9 6 Sudeste 17 Sur 0 -- -- 46
2018-08-16 12:00:00 26.2 7 Oeste 17 Sudoeste 0 -- -- 53
2018-08-16 11:00:00 24 3 Sur 7 Sur 0 -- -- 51
2018-08-16 10:00:00 20.8 3 Nordeste 6 Nordeste 0 -- -- 48
2018-08-16 09:00:00 14.6 0 Calma 4 Sur 0 -- -- 62
2018-08-16 08:00:00 10.5 0 Calma 3 Norte 0 -- -- 75
2018-08-16 07:00:00 11.2 0 Calma 2 Este 0 -- -- 73
2018-08-16 06:00:00 11.8 0 Calma 5 Este 0 -- -- 70
2018-08-16 05:00:00 12.3 2 Sur 7 Nordeste 0 -- -- 67
2018-08-16 04:00:00 13.7 5 Sudeste 6 Sudeste 0 -- -- 61
2018-08-16 03:00:00 14.8 4 Este 6 Este 0 -- -- 61
2018-08-16 02:00:00 15.6 3 Nordeste 5 Nordeste 0 -- -- 60
2018-08-16 01:00:00 17.7 2 Este 4 Nordeste 0 -- -- 56
2018-08-16 00:00:00 19 3 Sudeste 6 Nordeste 0 -- -- 51
2018-08-15 23:00:00 21.4 3 Noroeste 9 Sudeste 0 -- -- 46
2018-08-15 22:00:00 25 5 Sudeste 11 Sudeste 0 -- -- 36
2018-08-15 21:00:00 28.5 9 Sur 25 Sur 0 -- -- 31
2018-08-15 20:00:00 31.4 13 Sur 31 Sur 0 -- -- 30
2018-08-15 19:00:00 32.3 18 Sudoeste 31 Sudoeste 0 -- -- 32
2018-08-15 18:00:00 33.8 13 Sudoeste 27 Sudoeste 0 -- -- 32
2018-08-15 17:00:00 34.7 12 Sudoeste 24 Sudoeste 0 -- -- 23
2018-08-15 16:00:00 34.3 10 Sur 23 Sudoeste 0 -- -- 21
2018-08-15 15:00:00 33.6 11 Sudoeste 25 Sur 0 -- -- 23
2018-08-15 14:00:00 32.8 8 Sur 22 Sudoeste 0 -- -- 27
2018-08-15 13:00:00 31.3 7 Sudeste 22 Sudoeste 0 -- -- 26
2018-08-15 12:00:00 29.4 10 Sudoeste 22 Sur 0 -- -- 31
2018-08-15 11:00:00 26.7 10 Oeste 18 Oeste 0 -- -- 39
2018-08-15 10:00:00 22.7 0 Calma 4 Norte 0 -- -- 62
2018-08-15 09:00:00 18.2 2 Este 7 Este 0 -- -- 71
2018-08-15 08:00:00 13.2 2 Este 7 Sur 0 -- -- 81
2018-08-15 07:00:00 13.1 2 Este 3 Este 0 -- -- 79
2018-08-15 06:00:00 13.8 0 Calma 4 Este 0 -- -- 73
2018-08-15 05:00:00 14.2 3 Este 4 Nordeste 0 -- -- 69
2018-08-15 04:00:00 15.2 0 Calma 2 Sudeste 0 -- -- 62
2018-08-15 03:00:00 16.2 2 Nordeste 5 Nordeste 0 -- -- 59
2018-08-15 02:00:00 17.1 0 Calma 6 Este 0 -- -- 54
2018-08-15 01:00:00 18.5 0 Calma 5 Nordeste 0 -- -- 52
2018-08-15 00:00:00 20.4 2 Nordeste 6 Norte 0 -- -- 47
2018-08-14 23:00:00 23.2 4 Nordeste 9 Nordeste 0 -- -- 40
2018-08-14 22:00:00 26.8 4 Sudeste 18 Sur 0 -- -- 34
2018-08-14 21:00:00 31.2 8 Sudoeste 23 Sudoeste 0 -- -- 27
2018-08-14 20:00:00 33.8 12 Oeste 24 Oeste 0 -- -- 21
2018-08-14 19:00:00 34.4 11 Oeste 25 Oeste 0 -- -- 19
2018-08-14 18:00:00 34.9 11 Noroeste 20 Oeste 0 -- -- 18
2018-08-14 17:00:00 35.4 6 Sur 25 Sudoeste 0 -- -- 16
2018-08-14 16:00:00 34.8 8 Sudoeste 23 Sudoeste 0 -- -- 17
2018-08-14 15:00:00 33.5 10 Sudoeste 21 Sur 0 -- -- 15
2018-08-14 14:00:00 33.8 9 Sur 21 Sur 0 -- -- 16
2018-08-14 13:00:00 30.4 6 Noroeste 17 Oeste 0 -- -- 27
2018-08-14 12:00:00 26.5 5 Noroeste 13 Noroeste 0 -- -- 39
2018-08-14 11:00:00 22.6 4 Noroeste 9 Norte 0 -- -- 52
2018-08-14 10:00:00 19.5 0 Calma 4 Norte 0 -- -- 64
2018-08-14 09:00:00 15.4 0 Calma 5 Nordeste 0 -- -- 75
2018-08-14 08:00:00 10.8 2 Sur 4 Este 0 -- -- 89
2018-08-14 07:00:00 11.3 0 Calma 4 Sudeste 0 -- -- 86
2018-08-14 06:00:00 12.6 0 Calma 5 Sudeste 0 -- -- 83
2018-08-14 05:00:00 14 2 Este 7 Nordeste 0 -- -- 78
2018-08-14 04:00:00 16.2 2 Nordeste 6 Noroeste 0 -- -- 71
2018-08-14 03:00:00 18.9 0 Calma 10 Norte 0 -- -- 65
2018-08-14 02:00:00 20.4 3 Sudoeste 9 Oeste 0 -- -- 58
2018-08-14 01:00:00 22.9 5 Noroeste 18 Oeste 0 -- -- 52
2018-08-14 00:00:00 24.6 9 Oeste 20 Noroeste 0 -- -- 45
2018-08-13 23:00:00 26.1 3 Oeste 20 Noroeste 0 -- -- 37
2018-08-13 22:00:00 28 12 Noroeste 21 Noroeste 0 -- -- 32
2018-08-13 21:00:00 30.6 10 Noroeste 21 Noroeste 0 -- -- 28
2018-08-13 20:00:00 32.3 11 Noroeste 23 Noroeste 0 -- -- 24
2018-08-13 19:00:00 33.5 13 Oeste 27 Noroeste 0 -- -- 18
2018-08-13 18:00:00 33.5 14 Oeste 27 Noroeste 0 -- -- 20
2018-08-13 17:00:00 33.2 8 Noroeste 24 Oeste 0 -- -- 20
2018-08-13 16:00:00 32.4 12 Oeste 26 Oeste 0 -- -- 24
2018-08-13 15:00:00 31.4 9 Norte 21 Noroeste 0 -- -- 29
2018-08-13 14:00:00 30.2 10 Noroeste 21 Noroeste 0 -- -- 31
2018-08-13 13:00:00 28.4 12 Norte 19 Norte 0 -- -- 40
2018-08-13 12:00:00 26 5 Oeste 14 Oeste 0 -- -- 52
2018-08-13 11:00:00 22.6 6 Noroeste 18 Norte 0 -- -- 69
2018-08-13 10:00:00 20.2 5 Noroeste 13 Noroeste 0 -- -- 79
2018-08-13 09:00:00 18.7 5 Norte 14 Noroeste 0 -- -- 87
2018-08-13 08:00:00 18.1 5 Noroeste 10 Noroeste 0 -- -- 89
2018-08-13 07:00:00 17.6 8 Noroeste 17 Noroeste 0 -- -- 90
2018-08-13 06:00:00 17.8 8 Noroeste 20 Noroeste 0 -- -- 83
2018-08-13 05:00:00 18.7 10 Noroeste 17 Noroeste 0 -- -- 77
2018-08-13 04:00:00 18.3 5 Oeste 10 Oeste 0 -- -- 71
2018-08-13 03:00:00 20.8 0 Calma 8 Noroeste 0 -- -- 62
2018-08-13 02:00:00 23 8 Noroeste 15 Norte 0 -- -- 58
2018-08-13 01:00:00 24.9 9 Noroeste 18 Oeste 0 -- -- 54
2018-08-13 00:00:00 26.1 6 Sudoeste 25 Noroeste 0 -- -- 49
2018-08-12 23:00:00 27.7 15 Noroeste 30 Noroeste 0 -- -- 42
2018-08-12 22:00:00 29.3 15 Oeste 34 Oeste 0 -- -- 37
2018-08-12 21:00:00 32 12 Oeste 28 Oeste 0 -- -- 29
2018-08-12 20:00:00 34 14 Noroeste 28 Oeste 0 -- -- 25
2018-08-12 19:00:00 35.2 15 Oeste 36 Oeste 0 -- -- 23
2018-08-12 18:00:00 35.7 14 Oeste 31 Oeste 0 -- -- 22
2018-08-12 17:00:00 36 15 Oeste 37 Oeste 0 -- -- 23
2018-08-12 16:00:00 36 12 Noroeste 26 Oeste 0 -- -- 25
2018-08-12 15:00:00 35.3 12 Noroeste 28 Oeste 0 -- -- 26
2018-08-12 14:00:00 35.3 6 Oeste 23 Oeste 0 -- -- 27
2018-08-12 13:00:00 34.6 7 Sudoeste 21 Noroeste 0 -- -- 26
2018-08-12 12:00:00 32.8 5 Oeste 13 Oeste 0 -- -- 27
2018-08-12 11:00:00 29.7 3 Noroeste 7 Noroeste 0 -- -- 33
2018-08-12 10:00:00 25 2 Noroeste 5 Este 0 -- -- 45
2018-08-12 09:00:00 19.6 2 Este 4 Este 0 -- -- 62
2018-08-12 08:00:00 15.6 0 Calma 3 Nordeste 0 -- -- 73
2018-08-12 07:00:00 16.3 0 Calma 4 Sudeste 0 -- -- 73
2018-08-12 06:00:00 17.3 0 Calma 5 Nordeste 0 -- -- 70
2018-08-12 05:00:00 18.4 3 Este 4 Nordeste 0 -- -- 69
2018-08-12 04:00:00 18.5 3 Nordeste 6 Nordeste 0 -- -- 66
2018-08-12 03:00:00 19.3 2 Este 7 Nordeste 0 -- -- 64
2018-08-12 02:00:00 20.9 3 Nordeste 5 Nordeste 0 -- -- 55
2018-08-12 01:00:00 22.7 4 Norte 6 Nordeste 0 -- -- 49
2018-08-12 00:00:00 23.9 3 Oeste 10 Noroeste 0 -- -- 44
2018-08-11 23:00:00 26.3 4 Nordeste 9 Sur 0 -- -- 37
2018-08-11 22:00:00 29.8 4 Nordeste 13 Oeste 0 -- -- 30
2018-08-11 21:00:00 34.2 8 Noroeste 19 Oeste 0 -- -- 24
2018-08-11 20:00:00 36 13 Noroeste 22 Noroeste 0 -- -- 23
2018-08-11 19:00:00 37.2 6 Noroeste 23 Sudoeste 0 -- -- 22
2018-08-11 18:00:00 37.7 11 Oeste 24 Oeste 0 -- -- 22
2018-08-11 17:00:00 37.7 4 Norte 22 Sudoeste 0 -- -- 21
2018-08-11 16:00:00 37.1 9 Sudoeste 21 Sudoeste 0 -- -- 23
2018-08-11 15:00:00 37.6 11 Sur 21 Sur 0 -- -- 23
2018-08-11 14:00:00 35.3 9 Oeste 20 Sudoeste 0 -- -- 23
2018-08-11 13:00:00 34.9 10 Sudoeste 21 Sur 0 -- -- 22
2018-08-11 12:00:00 33.1 4 Noroeste 10 Oeste 0 -- -- 23
2018-08-11 11:00:00 30.9 2 Norte 4 Noroeste 0 -- -- 25
2018-08-11 10:00:00 23.8 0 Calma 4 Noroeste 0 -- -- 41
2018-08-11 09:00:00 18.1 0 Calma 5 Este 0 -- -- 58
2018-08-11 08:00:00 13.6 3 Este 5 Nordeste 0 -- -- 71
2018-08-11 07:00:00 13.3 3 Este 4 Este 0 -- -- 67
2018-08-11 06:00:00 14.1 3 Sudeste 7 Nordeste 0 -- -- 63
2018-08-11 05:00:00 14.3 0 Calma 3 Oeste 0 -- -- 57
2018-08-11 04:00:00 15.1 0 Calma 5 Sur 0 -- -- 53
2018-08-11 03:00:00 16.2 4 Este 6 Nordeste 0 -- -- 47
2018-08-11 02:00:00 17.5 3 Sudeste 8 Sudeste 0 -- -- 42
2018-08-11 01:00:00 18.1 2 Sur 6 Este 0 -- -- 41
2018-08-11 00:00:00 19.7 3 Noroeste 9 Sudoeste 0 -- -- 36
2018-08-10 23:00:00 22.6 4 Este 8 Nordeste 0 -- -- 29
2018-08-10 22:00:00 26.3 5 Norte 9 Noroeste 0 -- -- 25
2018-08-10 21:00:00 32.1 6 Noroeste 21 Noroeste 0 -- -- 17
2018-08-10 20:00:00 33.8 12 Noroeste 23 Noroeste 0 -- -- 16
2018-08-10 19:00:00 34.2 12 Noroeste 26 Noroeste 0 -- -- 17
2018-08-10 18:00:00 35.2 13 Oeste 25 Oeste 0 -- -- 17
2018-08-10 17:00:00 34.7 10 Oeste 27 Oeste 0 -- -- 17
2018-08-10 16:00:00 33.9 10 Noroeste 26 Oeste 0 -- -- 19
2018-08-10 15:00:00 33.8 12 Oeste 23 Norte 0 -- -- 20
2018-08-10 14:00:00 32.4 12 Noroeste 19 Noroeste 0 -- -- 21
2018-08-10 13:00:00 32 7 Oeste 23 Oeste 0 -- -- 21
2018-08-10 12:00:00 30.3 4 Noroeste 12 Noroeste 0 -- -- 22
2018-08-10 11:00:00 25.5 3 Sudoeste 8 Oeste 0 -- -- 40
2018-08-10 10:00:00 20.8 0 Calma 3 Nordeste 0 -- -- 56
2018-08-10 09:00:00 15.2 0 Calma 3 Este 0 -- -- 74
2018-08-10 08:00:00 10.5 0 Calma 2 Nordeste 0 -- -- 87
2018-08-10 07:00:00 11.4 0 Calma 3 Nordeste 0 -- -- 85
2018-08-10 06:00:00 12.5 0 Calma 5 Sudeste 0 -- -- 81
2018-08-10 05:00:00 14 0 Calma 9 Nordeste 0 -- -- 76
2018-08-10 04:00:00 15.8 4 Sudeste 9 Este 0 -- -- 68
2018-08-10 03:00:00 18.3 3 Sur 7 Noroeste 0 -- -- 64
2018-08-10 02:00:00 20.2 0 Calma 17 Norte 0 -- -- 60
2018-08-10 01:00:00 22.2 7 Noroeste 21 Noroeste 0 -- -- 54
2018-08-10 00:00:00 23.8 13 Norte 26 Norte 0 -- -- 46
2018-08-09 23:00:00 20.5 2 Nordeste 6 Nordeste 0 -- -- 37
2018-08-09 22:00:00 24.2 2 Norte 14 Noroeste 0 -- -- 31
2018-08-09 21:00:00 28.7 7 Norte 21 Noroeste 0 -- -- 24
2018-08-09 20:00:00 30.1 10 Noroeste 22 Nordeste 0 -- -- 25
2018-08-09 19:00:00 30.4 10 Noroeste 25 Oeste 0 -- -- 22
2018-08-09 18:00:00 30.5 13 Noroeste 25 Noroeste 0 -- -- 23
2018-08-09 17:00:00 29.7 18 Noroeste 32 Noroeste 0 -- -- 26
2018-08-09 16:00:00 29.2 18 Noroeste 29 Noroeste 0 -- -- 29
2018-08-09 15:00:00 28.3 18 Noroeste 32 Noroeste 0 -- -- 33
2018-08-09 14:00:00 27 14 Noroeste 29 Oeste 0 -- -- 42
2018-08-09 13:00:00 25.1 13 Noroeste 29 Noroeste 0 -- -- 47
2018-08-09 12:00:00 23 13 Norte 23 Noroeste 0 -- -- 58
2018-08-09 11:00:00 20.9 10 Norte 24 Noroeste 0 -- -- 66
2018-08-09 10:00:00 19 11 Noroeste 23 Norte 0 -- -- 75
2018-08-09 09:00:00 18.1 3 Oeste 14 Norte 0 -- -- 81
2018-08-09 08:00:00 16.7 3 Norte 15 Norte 0 -- -- 87
2018-08-09 07:00:00 16.6 4 Noroeste 15 Noroeste 0 -- -- 86
2018-08-09 06:00:00 16.8 4 Noroeste 14 Norte 0 -- -- 84
2018-08-09 05:00:00 17.4 3 Noroeste 13 Oeste 0 -- -- 81
2018-08-09 04:00:00 17.8 5 Noroeste 23 Oeste 0 -- -- 77
2018-08-09 03:00:00 18.7 10 Noroeste 22 Noroeste 0 -- -- 73
2018-08-09 02:00:00 19.6 8 Oeste 32 Noroeste 0 -- -- 71
2018-08-09 01:00:00 20.9 13 Noroeste 26 Noroeste 0 -- -- 64
2018-08-09 00:00:00 22.4 9 Oeste 24 Oeste 0 -- -- 57
2018-08-08 23:00:00 24 12 Noroeste 27 Noroeste 0 -- -- 50
2018-08-08 22:00:00 25.4 9 Noroeste 32 Noroeste 0 -- -- 36
2018-08-08 21:00:00 28.6 17 Oeste 33 Oeste 0 -- -- 28
2018-08-08 20:00:00 30.8 18 Noroeste 37 Noroeste 0 -- -- 23
2018-08-08 19:00:00 32.2 20 Oeste 33 Oeste 0 -- -- 23
2018-08-08 18:00:00 33 14 Oeste 28 Noroeste 0 -- -- 27
2018-08-08 17:00:00 32.8 13 Oeste 29 Oeste 0 -- -- 27
2018-08-08 16:00:00 32.5 11 Sudoeste 28 Oeste 0 -- -- 29
2018-08-08 15:00:00 31.1 12 Oeste 26 Oeste 0 -- -- 32
2018-08-08 14:00:00 29.8 14 Oeste 28 Sudoeste 0 -- -- 38
2018-08-08 13:00:00 28.2 10 Oeste 20 Oeste 0 -- -- 43
2018-08-08 12:00:00 25.9 9 Oeste 17 Oeste 0 -- -- 50
2018-08-08 11:00:00 23.2 6 Oeste 13 Oeste 0 -- -- 59
2018-08-08 10:00:00 20.3 0 Calma 4 Norte 0 -- -- 67
2018-08-08 09:00:00 15.8 0 Calma 2 Nordeste 0 -- -- 77
2018-08-08 08:00:00 12.4 4 Este 6 Nordeste 0 -- -- 87
2018-08-08 07:00:00 13.3 4 Sudeste 7 Este 0 -- -- 83
2018-08-08 06:00:00 14.1 3 Nordeste 10 Oeste 0 -- -- 81
2018-08-08 05:00:00 15.7 4 Oeste 8 Sudoeste 0 -- -- 77
2018-08-08 04:00:00 17.1 4 Oeste 13 Noroeste 0 -- -- 71
2018-08-08 03:00:00 18.9 5 Noroeste 12 Noroeste 0 -- -- 65
2018-08-08 02:00:00 20.6 8 Noroeste 14 Noroeste 0 -- -- 59
2018-08-08 01:00:00 22.7 8 Noroeste 21 Oeste 0 -- -- 51
2018-08-08 00:00:00 24.7 7 Noroeste 24 Noroeste 0 -- -- 45
2018-08-07 23:00:00 26.5 9 Noroeste 28 Noroeste 0 -- -- 38
2018-08-07 22:00:00 28.3 7 Noroeste 30 Oeste 0 -- -- 34
2018-08-07 21:00:00 30.9 16 Noroeste 30 Noroeste 0 -- -- 31
2018-08-07 20:00:00 33.4 12 Noroeste 24 Norte 0 -- -- 25
2018-08-07 19:00:00 34.4 13 Noroeste 26 Noroeste 0 -- -- 24
2018-08-07 18:00:00 34.7 11 Norte 31 Noroeste 0 -- -- 23
2018-08-07 17:00:00 34.6 14 Norte 25 Noroeste 0 -- -- 20
2018-08-07 16:00:00 34 12 Noroeste 23 Noroeste 0 -- -- 22
2018-08-07 15:00:00 32.8 11 Norte 24 Noroeste 0 -- -- 25
2018-08-07 14:00:00 30.8 12 Norte 21 Oeste 0 -- -- 31
2018-08-07 13:00:00 28.9 12 Noroeste 20 Noroeste 0 -- -- 38
2018-08-07 12:00:00 27.6 5 Oeste 18 Oeste 0 -- -- 45
2018-08-07 11:00:00 24.6 7 Sudoeste 14 Sudoeste 0 -- -- 52
2018-08-07 10:00:00 21.4 7 Noroeste 12 Noroeste 0 -- -- 63
2018-08-07 09:00:00 19.3 5 Noroeste 10 Oeste 0 -- -- 71
2018-08-07 08:00:00 17.6 5 Noroeste 10 Noroeste 0 -- -- 76
2018-08-07 07:00:00 18 6 Oeste 12 Noroeste 0 -- -- 74
2018-08-07 06:00:00 18.4 5 Noroeste 11 Oeste 0 -- -- 73
2018-08-07 05:00:00 20.1 0 Calma 10 Oeste 0 -- -- 64
2018-08-07 04:00:00 22.2 4 Oeste 8 Oeste 0 -- -- 64
2018-08-07 03:00:00 23.1 5 Oeste 13 Oeste 0 -- -- 54
2018-08-07 02:00:00 24.5 4 Este 14 Sudoeste 0 -- -- 40
2018-08-07 01:00:00 26.7 4 Sudoeste 13 Noroeste 0 -- -- 32
2018-08-07 00:00:00 29.5 7 Noroeste 17 Sudoeste 0 -- -- 27
2018-08-06 23:00:00 31.4 9 Oeste 26 Norte 0 -- -- 25
2018-08-06 22:00:00 34.2 7 Norte 28 Noroeste 0 -- -- 24
2018-08-06 21:00:00 37.4 11 Noroeste 31 Oeste 0 -- -- 20
2018-08-06 20:00:00 40.3 16 Oeste 32 Oeste 0 -- -- 19
2018-08-06 19:00:00 41.7 15 Oeste 30 Oeste 0 -- -- 19
2018-08-06 18:00:00 42.5 12 Oeste 30 Oeste 0 -- -- 17
2018-08-06 17:00:00 42.1 14 Noroeste 28 Noroeste 0 -- -- 16
2018-08-06 16:00:00 42.2 14 Oeste 25 Oeste 0 -- -- 18
2018-08-06 15:00:00 40.9 14 Oeste 26 Oeste 0 -- -- 20
2018-08-06 14:00:00 39.6 9 Sudoeste 32 Sudoeste 0 -- -- 24
2018-08-06 13:00:00 37.9 10 Oeste 18 Oeste 0 -- -- 27
2018-08-06 12:00:00 35.6 6 Oeste 12 Oeste 0 -- -- 29
2018-08-06 11:00:00 32.4 3 Noroeste 6 Noroeste 0 -- -- 33
2018-08-06 10:00:00 27.4 0 Calma 5 Sudeste 0 -- -- 44
2018-08-06 09:00:00 22.8 3 Sudeste 6 Sur 0 -- -- 54
2018-08-06 08:00:00 19.7 0 Calma 8 Sudeste 0 -- -- 60
2018-08-06 07:00:00 20.3 2 Este 6 Este 0 -- -- 58
2018-08-06 06:00:00 21.1 4 Este 6 Este 0 -- -- 53
2018-08-06 05:00:00 21.2 0 Calma 4 Nordeste 0 -- -- 52
2018-08-06 04:00:00 21.9 3 Nordeste 5 Nordeste 0 -- -- 50
2018-08-06 03:00:00 22.9 0 Calma 3 Nordeste 0 -- -- 45
2018-08-06 02:00:00 25.1 3 Este 5 Nordeste 0 -- -- 41
2018-08-06 01:00:00 25.8 0 Calma 9 Este 0 -- -- 39
2018-08-06 00:00:00 27.3 3 Nordeste 9 Noroeste 0 -- -- 36
2018-08-05 23:00:00 30.7 4 Norte 9 Norte 0 -- -- 29
2018-08-05 22:00:00 35 5 Nordeste 20 Nordeste 0 -- -- 22
2018-08-05 21:00:00 39.1 5 Norte 23 Norte 0 -- -- 16
2018-08-05 20:00:00 41.1 12 Norte 28 Nordeste 0 -- -- 15
2018-08-05 19:00:00 41.9 12 Norte 32 Norte 0 -- -- 14
2018-08-05 18:00:00 42.5 19 Norte 39 Norte 0 -- -- 14
2018-08-05 17:00:00 43.3 13 Norte 35 Nordeste 0 -- -- 13
2018-08-05 16:00:00 43.4 10 Nordeste 31 Nordeste 0 -- -- 13
2018-08-05 15:00:00 42.7 19 Este 34 Este 0 -- -- 15
2018-08-05 14:00:00 41.9 17 Norte 32 Norte 0 -- -- 13
2018-08-05 13:00:00 41.5 9 Este 22 Nordeste 0 -- -- 15
2018-08-05 12:00:00 38.3 5 Sudoeste 10 Oeste 0 -- -- 23
2018-08-05 11:00:00 34.6 0 Calma 4 Oeste 0 -- -- 28
2018-08-05 10:00:00 29.8 2 Este 4 Este 0 -- -- 37
2018-08-05 09:00:00 23.6 0 Calma 8 Nordeste 0 -- -- 51
2018-08-05 08:00:00 21 2 Este 6 Este 0 -- -- 53
2018-08-05 07:00:00 21.1 2 Este 5 Este 0 -- -- 51
2018-08-05 06:00:00 21.5 0 Calma 4 Sudoeste 0 -- -- 48
2018-08-05 05:00:00 21.8 0 Calma 7 Nordeste 0 -- -- 47
2018-08-05 04:00:00 22.5 2 Sudeste 6 Este 0 -- -- 45
2018-08-05 03:00:00 23.6 4 Este 7 Este 0 -- -- 41
2018-08-05 02:00:00 25.5 2 Nordeste 6 Sudeste 0 -- -- 40
2018-08-05 01:00:00 29.1 4 Norte 13 Oeste 0 -- -- 34
2018-08-05 00:00:00 29.7 4 Norte 9 Norte 0 -- -- 27
2018-08-04 23:00:00 33.3 8 Norte 14 Nordeste 0 -- -- 23
2018-08-04 22:00:00 36.9 9 Norte 36 Norte 0 -- -- 19
2018-08-04 21:00:00 38.5 4 Norte 15 Norte 0 -- -- 20
2018-08-04 20:00:00 40.8 13 Noroeste 32 Norte 0 -- -- 17
2018-08-04 19:00:00 42.8 19 Norte 37 Norte 0 -- -- 14
2018-08-04 18:00:00 43.3 18 Nordeste 36 Norte 0 -- -- 14
2018-08-04 17:00:00 44.1 13 Norte 32 Norte 0 -- -- 13
2018-08-04 16:00:00 43.8 15 Nordeste 30 Nordeste 0 -- -- 14
2018-08-04 15:00:00 44.2 11 Nordeste 32 Nordeste 0 -- -- 14
2018-08-04 14:00:00 43.1 12 Norte 28 Nordeste 0 -- -- 15
2018-08-04 13:00:00 42.4 13 Este 26 Nordeste 0 -- -- 18
2018-08-04 12:00:00 41 3 Nordeste 10 Norte 0 -- -- 19
2018-08-04 11:00:00 36.5 3 Oeste 5 Oeste 0 -- -- 27
2018-08-04 10:00:00 30.4 0 Calma 4 Este 0 -- -- 39
2018-08-04 09:00:00 23.5 0 Calma 3 Norte 0 -- -- 55
2018-08-04 08:00:00 20.8 0 Calma 4 Nordeste 0 -- -- 60
2018-08-04 07:00:00 20.9 3 Sudeste 6 Este 0 -- -- 58
2018-08-04 06:00:00 21.8 2 Sudeste 7 Este 0 -- -- 54
2018-08-04 05:00:00 21.5 0 Calma 5 Nordeste 0 -- -- 54
2018-08-04 04:00:00 22.3 3 Este 5 Sudeste 0 -- -- 51
2018-08-04 03:00:00 23.7 0 Calma 5 Nordeste 0 -- -- 45
2018-08-04 02:00:00 24.7 3 Este 6 Nordeste 0 -- -- 43
2018-08-04 01:00:00 26.5 3 Este 8 Este 0 -- -- 38
2018-08-04 00:00:00 28 2 Sudeste 8 Sudoeste 0 -- -- 35
2018-08-03 23:00:00 31.8 4 Este 7 Este 0 -- -- 29
2018-08-03 22:00:00 35.1 3 Norte 14 Noroeste 0 -- -- 25
2018-08-03 21:00:00 39.6 9 Noroeste 24 Noroeste 0 -- -- 19
2018-08-03 20:00:00 41.6 15 Noroeste 30 Noroeste 0 -- -- 16
2018-08-03 19:00:00 42.7 14 Noroeste 27 Noroeste 0 -- -- 17
2018-08-03 18:00:00 43.6 13 Nordeste 26 Noroeste 0 -- -- 16
2018-08-03 17:00:00 43.7 10 Norte 27 Oeste 0 -- -- 15
2018-08-03 16:00:00 43.4 13 Sudoeste 25 Noroeste 0 -- -- 16
2018-08-03 15:00:00 43 7 Noroeste 17 Sudoeste 0 -- -- 18
2018-08-03 14:00:00 41.8 4 Nordeste 15 Sudoeste 0 -- -- 18
2018-08-03 13:00:00 40.3 5 Sudeste 10 Sudeste 0 -- -- 20
2018-08-03 12:00:00 36.7 4 Oeste 9 Oeste 0 -- -- 23
2018-08-03 11:00:00 32 4 Sudoeste 10 Oeste 0 -- -- 30
2018-08-03 10:00:00 27.2 3 Noroeste 5 Oeste 0 -- -- 41
2018-08-03 09:00:00 23 2 Sudeste 6 Sudeste 0 -- -- 49
2018-08-03 08:00:00 19.1 3 Este 5 Nordeste 0 -- -- 57
2018-08-03 07:00:00 19.8 4 Este 6 Este 0 -- -- 54
2018-08-03 06:00:00 20.5 3 Este 6 Este 0 -- -- 52
2018-08-03 05:00:00 21 3 Este 5 Nordeste 0 -- -- 50
2018-08-03 04:00:00 22.5 3 Nordeste 5 Nordeste 0 -- -- 46
2018-08-03 03:00:00 24.3 3 Nordeste 10 Oeste 0 -- -- 41
2018-08-03 02:00:00 24.3 5 Oeste 8 Norte 0 -- -- 41
2018-08-03 01:00:00 24.6 0 Calma 7 Nordeste 0 -- -- 41
2018-08-03 00:00:00 25.8 3 Sur 5 Norte 0 -- -- 35
2018-08-02 23:00:00 28.2 3 Nordeste 5 Nordeste 0 -- -- 31
2018-08-02 22:00:00 31.6 2 Nordeste 8 Este 0 -- -- 25
2018-08-02 21:00:00 37.3 3 Sudeste 15 Sudeste 0 -- -- 19
2018-08-02 20:00:00 41.3 6 Sur 24 Sur 0 -- -- 16
2018-08-02 19:00:00 42.2 13 Sur 25 Sudeste 0 -- -- 15
2018-08-02 18:00:00 43 12 Sudeste 28 Sudeste 0 -- -- 15
2018-08-02 17:00:00 42.9 14 Sudeste 34 Sudeste 0 -- -- 14
2018-08-02 16:00:00 42 15 Sudeste 32 Sudeste 0 -- -- 16
2018-08-02 15:00:00 41.8 13 Sudeste 36 Sudeste 0 -- -- 16
2018-08-02 14:00:00 40.4 9 Sudeste 25 Este 0 -- -- 17
2018-08-02 13:00:00 38.5 10 Este 23 Sudeste 0 -- -- 19
2018-08-02 12:00:00 37 11 Sudeste 18 Este 0 -- -- 21
2018-08-02 11:00:00 34.2 9 Este 15 Este 0 -- -- 23
2018-08-02 10:00:00 29.1 4 Este 8 Este 0 -- -- 32
2018-08-02 09:00:00 22.9 5 Este 7 Este 0 -- -- 45
2018-08-02 08:00:00 19.8 0 Calma 8 Sudoeste 0 -- -- 53
2018-08-02 07:00:00 20.7 4 Nordeste 9 Sur 0 -- -- 49
2018-08-02 06:00:00 21.4 5 Nordeste 8 Nordeste 0 -- -- 47
2018-08-02 05:00:00 21.6 0 Calma 8 Este 0 -- -- 46
2018-08-02 04:00:00 22.2 3 Nordeste 10 Nordeste 0 -- -- 44
2018-08-02 03:00:00 22.5 0 Calma 5 Este 0 -- -- 44
2018-08-02 02:00:00 22.5 3 Este 6 Nordeste 0 -- -- 42
2018-08-02 01:00:00 23.4 4 Nordeste 11 Oeste 0 -- -- 41
2018-08-02 00:00:00 25.1 4 Nordeste 5 Nordeste 0 -- -- 35
2018-08-01 23:00:00 27.7 3 Nordeste 8 Nordeste 0 -- -- 32
2018-08-01 22:00:00 31.8 2 Nordeste 10 Sudeste 0 -- -- 26
2018-08-01 21:00:00 37.3 6 Este 18 Sudeste 0 -- -- 18
2018-08-01 20:00:00 39.6 9 Sudeste 22 Sudeste 0 -- -- 16
2018-08-01 19:00:00 40 9 Sudeste 26 Sudeste 0 -- -- 15
2018-08-01 18:00:00 41 10 Sudeste 27 Sudeste 0 -- -- 14
2018-08-01 17:00:00 41.4 9 Sur 23 Sudeste 0 -- -- 14
2018-08-01 16:00:00 40.5 6 Este 24 Este 0 -- -- 14
2018-08-01 15:00:00 39.4 12 Este 27 Este 0 -- -- 16
2018-08-01 14:00:00 38.5 11 Este 24 Este 0 -- -- 16
2018-08-01 13:00:00 37.4 12 Sudeste 28 Sudeste 0 -- -- 18
2018-08-01 12:00:00 34.9 10 Sudeste 18 Sudeste 0 -- -- 25
2018-08-01 11:00:00 30.8 2 Nordeste 8 Nordeste 0 -- -- 42
2018-08-01 10:00:00 24.3 3 Noroeste 7 Noroeste 0 -- -- 61
2018-08-01 09:00:00 19.2 0 Calma 6 Nordeste 0 -- -- 75
2018-08-01 08:00:00 15.4 2 Este 5 Sur 0 -- -- 85
2018-08-01 07:00:00 15.8 0 Calma 3 Nordeste 0 -- -- 83
2018-08-01 06:00:00 16.2 0 Calma 5 Sudoeste 0 -- -- 81
2018-08-01 05:00:00 17.3 0 Calma 7 Este 0 -- -- 76
2018-08-01 04:00:00 19 5 Este 9 Este 0 -- -- 70
2018-08-01 03:00:00 21.6 4 Este 13 Noroeste 0 -- -- 61
2018-08-01 02:00:00 24.9 8 Noroeste 15 Norte 0 -- -- 58
2018-08-01 01:00:00 26.5 3 Norte 16 Noroeste 0 -- -- 49
2018-08-01 00:00:00 27.8 9 Noroeste 17 Oeste 0 -- -- 45
2018-07-31 23:00:00 28.2 3 Noroeste 12 Noroeste 0 -- -- 41
2018-07-31 22:00:00 29.9 4 Noroeste 12 Noroeste 0 -- -- 35
2018-07-31 21:00:00 33.3 8 Noroeste 23 Norte 0 -- -- 27
2018-07-31 20:00:00 34.5 13 Noroeste 23 Noroeste 0 -- -- 24
2018-07-31 19:00:00 35 12 Noroeste 23 Noroeste 0 -- -- 24
2018-07-31 18:00:00 35 8 Norte 22 Noroeste 0 -- -- 25
2018-07-31 17:00:00 35.1 11 Norte 21 Noroeste 0 -- -- 26
2018-07-31 16:00:00 34.1 12 Noroeste 19 Noroeste 0 -- -- 26
2018-07-31 15:00:00 33.4 9 Oeste 18 Oeste 0 -- -- 28
2018-07-31 14:00:00 31.4 6 Este 19 Norte 0 -- -- 34
2018-07-31 13:00:00 28.8 9 Oeste 16 Sudoeste 0 -- -- 48
2018-07-31 12:00:00 25.6 4 Sudoeste 12 Sudeste 0 -- -- 59
2018-07-31 11:00:00 22.2 4 Nordeste 13 Este 0 -- -- 71
2018-07-31 10:00:00 19.4 5 Norte 10 Noroeste 0 -- -- 84
2018-07-31 09:00:00 17.3 3 Este 5 Norte 0 -- -- 91
2018-07-31 08:00:00 14.7 0 Calma 5 Este 0 -- -- 95
2018-07-31 07:00:00 14.6 0 Calma 3 Este 0 -- -- 92
2018-07-31 06:00:00 16 0 Calma 5 Oeste 0 -- -- 91
2018-07-31 05:00:00 18 3 Oeste 8 Noroeste 0 -- -- 87
2018-07-31 04:00:00 19.2 5 Noroeste 14 Norte 0 -- -- 81
2018-07-31 03:00:00 20.6 8 Noroeste 12 Norte 0 -- -- 78
2018-07-31 02:00:00 21.6 6 Noroeste 15 Noroeste 0 -- -- 73
2018-07-31 01:00:00 22.8 5 Oeste 16 Oeste 0 -- -- 67
2018-07-31 00:00:00 24.7 9 Sudoeste 20 Norte 0 -- -- 58
2018-07-30 23:00:00 26.5 4 Oeste 27 Norte 0 -- -- 48
2018-07-30 22:00:00 28.3 10 Noroeste 23 Noroeste 0 -- -- 40
2018-07-30 21:00:00 31 12 Noroeste 23 Oeste 0 -- -- 33
2018-07-30 20:00:00 32.3 11 Noroeste 22 Norte 0 -- -- 30
2018-07-30 19:00:00 33.1 11 Noroeste 28 Noroeste 0 -- -- 27
2018-07-30 18:00:00 33 14 Oeste 26 Noroeste 0 -- -- 29
2018-07-30 17:00:00 32.4 14 Noroeste 27 Noroeste 0 -- -- 29
2018-07-30 16:00:00 31.4 13 Norte 28 Norte 0 -- -- 32
2018-07-30 15:00:00 30.1 11 Noroeste 23 Oeste 0 -- -- 37
2018-07-30 14:00:00 28.5 13 Oeste 28 Oeste 0 -- -- 41
2018-07-30 13:00:00 26.3 10 Noroeste 19 Noroeste 0 -- -- 46
2018-07-30 12:00:00 23.8 6 Oeste 17 Oeste 0 -- -- 56
2018-07-30 11:00:00 21.2 5 Oeste 14 Oeste 0 -- -- 64
2018-07-30 10:00:00 19 5 Norte 9 Norte 0 -- -- 72
2018-07-30 09:00:00 16.2 0 Calma 7 Nordeste 0 -- -- 76
2018-07-30 08:00:00 10.9 0 Calma 6 Nordeste 0 -- -- 92
2018-07-30 07:00:00 11.2 2 Nordeste 5 Este 0 -- -- 88
2018-07-30 06:00:00 12.3 2 Nordeste 4 Nordeste 0 -- -- 86
2018-07-30 05:00:00 13.7 0 Calma 5 Nordeste 0 -- -- 82
2018-07-30 04:00:00 15.4 3 Sur 6 Oeste 0 -- -- 78
2018-07-30 03:00:00 16.9 4 Noroeste 7 Noroeste 0 -- -- 70
2018-07-30 02:00:00 18.5 2 Noroeste 13 Noroeste 0 -- -- 65
2018-07-30 01:00:00 19.3 2 Este 17 Oeste 0 -- -- 61
2018-07-30 00:00:00 21.3 12 Oeste 20 Oeste 0 -- -- 56
2018-07-29 23:00:00 23.4 8 Oeste 23 Noroeste 0 -- -- 49
2018-07-29 22:00:00 25.7 10 Noroeste 19 Norte 0 -- -- 35
2018-07-29 21:00:00 28.2 14 Noroeste 24 Noroeste 0 -- -- 32
2018-07-29 20:00:00 30.3 9 Noroeste 25 Noroeste 0 -- -- 29
2018-07-29 19:00:00 30.7 14 Oeste 27 Oeste 0 -- -- 27
2018-07-29 18:00:00 30.9 14 Oeste 31 Oeste 0 -- -- 25
2018-07-29 17:00:00 30 15 Oeste 28 Oeste 0 -- -- 30
2018-07-29 16:00:00 29.4 14 Oeste 28 Oeste 0 -- -- 31
2018-07-29 15:00:00 28.1 16 Oeste 24 Sudoeste 0 -- -- 34
2018-07-29 14:00:00 26.2 10 Norte 21 Noroeste 0 -- -- 39
2018-07-29 13:00:00 24.8 7 Noroeste 18 Norte 0 -- -- 47
2018-07-29 12:00:00 21.7 8 Noroeste 18 Noroeste 0 -- -- 55
2018-07-29 11:00:00 19.5 9 Noroeste 18 Norte 0 -- -- 66
2018-07-29 10:00:00 17.7 9 Norte 23 Norte 0 -- -- 74
2018-07-29 09:00:00 16.4 5 Noroeste 20 Norte 0 -- -- 82
2018-07-29 08:00:00 16.2 3 Noroeste 15 Noroeste 0 -- -- 85
2018-07-29 07:00:00 15 0 Calma 9 Norte 0 -- -- 89
2018-07-29 06:00:00 15.4 3 Norte 11 Norte 0 -- -- 89
2018-07-29 05:00:00 15.2 3 Sudoeste 10 Oeste 0 -- -- 88
2018-07-29 04:00:00 16.7 0 Calma 12 Oeste 0 -- -- 85
2018-07-29 03:00:00 17.7 8 Oeste 13 Oeste 0 -- -- 82
2018-07-29 02:00:00 19 9 Oeste 17 Oeste 0 -- -- 75
2018-07-29 01:00:00 20.4 10 Oeste 21 Oeste 0 -- -- 68
2018-07-29 00:00:00 22 13 Oeste 25 Oeste 0 -- -- 62
2018-07-28 23:00:00 23.7 10 Oeste 28 Oeste 0 -- -- 59
2018-07-28 22:00:00 26.1 13 Oeste 28 Oeste 0 -- -- 50
2018-07-28 21:00:00 29.7 16 Oeste 27 Oeste 0 -- -- 40
2018-07-28 20:00:00 31.6 16 Oeste 31 Oeste 0 -- -- 33
2018-07-28 19:00:00 32.1 12 Noroeste 26 Noroeste 0 -- -- 31
2018-07-28 18:00:00 32.3 14 Oeste 30 Sudoeste 0 -- -- 30
2018-07-28 17:00:00 32.1 12 Oeste 28 Oeste 0 -- -- 24
2018-07-28 16:00:00 31 13 Noroeste 24 Oeste 0 -- -- 24
2018-07-28 15:00:00 30 13 Oeste 24 Noroeste 0 -- -- 25
2018-07-28 14:00:00 28.8 10 Noroeste 20 Noroeste 0 -- -- 30
2018-07-28 13:00:00 27.5 11 Sudoeste 19 Oeste 0 -- -- 36
2018-07-28 12:00:00 23.8 8 Oeste 15 Noroeste 0 -- -- 53
2018-07-28 11:00:00 21.8 4 Sudoeste 11 Noroeste 0 -- -- 58
2018-07-28 10:00:00 18.7 2 Oeste 8 Oeste 0 -- -- 71
2018-07-28 09:00:00 15.7 0 Calma 5 Este 0 -- -- 79
2018-07-28 08:00:00 10.8 3 Este 5 Este 0 -- -- 93
2018-07-28 07:00:00 11.3 0 Calma 4 Sur 0 -- -- 92
2018-07-28 06:00:00 12.8 2 Sur 9 Sudeste 0 -- -- 88
2018-07-28 05:00:00 16.3 4 Norte 10 Norte 0 -- -- 81
2018-07-28 04:00:00 17.3 8 Norte 18 Norte 0 -- -- 76
2018-07-28 03:00:00 18.3 6 Norte 16 Norte 0 -- -- 72
2018-07-28 02:00:00 19.6 3 Noroeste 13 Norte 0 -- -- 66
2018-07-28 01:00:00 20.8 3 Oeste 19 Oeste 0 -- -- 60
2018-07-28 00:00:00 22.5 12 Oeste 20 Oeste 0 -- -- 57
2018-07-27 23:00:00 24.2 10 Oeste 27 Oeste 0 -- -- 48
2018-07-27 22:00:00 26.8 15 Oeste 26 Oeste 0 -- -- 41
2018-07-27 21:00:00 30.2 15 Oeste 27 Oeste 0 -- -- 32
2018-07-27 20:00:00 32.2 17 Oeste 31 Oeste 0 -- -- 29
2018-07-27 19:00:00 33.2 16 Oeste 31 Oeste 0 -- -- 27
2018-07-27 18:00:00 33.9 13 Oeste 27 Sudoeste 0 -- -- 28
2018-07-27 17:00:00 32.9 12 Oeste 33 Noroeste 0 -- -- 28
2018-07-27 16:00:00 32.7 12 Noroeste 28 Norte 0 -- -- 30
2018-07-27 15:00:00 31.5 9 Noroeste 24 Noroeste 0 -- -- 29
2018-07-27 14:00:00 30.1 15 Norte 26 Noroeste 0 -- -- 32
2018-07-27 13:00:00 29.3 9 Norte 17 Norte 0 -- -- 35
2018-07-27 12:00:00 26.2 5 Oeste 13 Oeste 0 -- -- 47
2018-07-27 11:00:00 23.1 6 Oeste 10 Oeste 0 -- -- 57
2018-07-27 10:00:00 19.7 5 Oeste 9 Oeste 0 -- -- 69
2018-07-27 09:00:00 16.3 2 Nordeste 4 Este 0 -- -- 80
2018-07-27 08:00:00 11.7 0 Calma 3 Nordeste 0 -- -- 92
2018-07-27 07:00:00 12.4 2 Este 3 Este 0 -- -- 89
2018-07-27 06:00:00 13.5 0 Calma 3 Nordeste 0 -- -- 86
2018-07-27 05:00:00 15.1 2 Este 2 Este 0 -- -- 80
2018-07-27 04:00:00 17.7 0 Calma 20 Norte 0 -- -- 74
2018-07-27 03:00:00 20 12 Norte 18 Norte 0 -- -- 69
2018-07-27 02:00:00 21.5 7 Norte 14 Norte 0 -- -- 63
2018-07-27 01:00:00 22.9 2 Norte 20 Oeste 0 -- -- 58
2018-07-27 00:00:00 24.7 7 Oeste 27 Noroeste 0 -- -- 51
2018-07-26 23:00:00 25 9 Noroeste 26 Noroeste 0 -- -- 46
2018-07-26 22:00:00 27.1 5 Noroeste 20 Noroeste 0 -- -- 37
2018-07-26 21:00:00 30.6 8 Noroeste 19 Oeste 0 -- -- 33
2018-07-26 20:00:00 32.4 9 Oeste 25 Oeste 0 -- -- 28
2018-07-26 19:00:00 32.5 11 Oeste 19 Oeste 0 -- -- 29
2018-07-26 18:00:00 32.8 6 Oeste 29 Oeste 0 -- -- 29
2018-07-26 17:00:00 32.1 13 Oeste 30 Oeste 0 -- -- 32
2018-07-26 16:00:00 31.5 11 Oeste 23 Oeste 0 -- -- 35
2018-07-26 15:00:00 31 6 Sur 21 Sudoeste 0 -- -- 36
2018-07-26 14:00:00 29.6 9 Sudoeste 28 Sudoeste 0 -- -- 40
2018-07-26 13:00:00 28.5 6 Sudoeste 14 Oeste 0 -- -- 45
2018-07-26 12:00:00 25.7 8 Oeste 17 Oeste 0 -- -- 53
2018-07-26 11:00:00 23.2 5 Sudoeste 10 Sudoeste 0 -- -- 62
2018-07-26 10:00:00 20.7 3 Nordeste 8 Este 0 -- -- 72
2018-07-26 09:00:00 18.7 3 Oeste 9 Noroeste 0 -- -- 81
2018-07-26 08:00:00 17.9 4 Noroeste 7 Norte 0 -- -- 86
2018-07-26 07:00:00 16.9 2 Nordeste 5 Sudeste 0 -- -- 86
2018-07-26 06:00:00 15.9 3 Sudeste 6 Nordeste 0 -- -- 92
2018-07-26 05:00:00 15.4 0 Calma 5 Noroeste 0 -- -- 91
2018-07-26 04:00:00 17.5 5 Noroeste 10 Noroeste 0 -- -- 91
2018-07-26 03:00:00 17.4 3 Noroeste 8 Noroeste 0 -- -- 82
2018-07-26 02:00:00 19.9 5 Norte 13 Noroeste 0 -- -- 78
2018-07-26 01:00:00 21 0 Calma 17 Oeste 0 -- -- 70
2018-07-26 00:00:00 22.8 10 Oeste 17 Oeste 0 -- -- 61
2018-07-25 23:00:00 24 9 Oeste 16 Oeste 0 -- -- 53
2018-07-25 22:00:00 26 10 Oeste 21 Oeste 0 -- -- 43
2018-07-25 21:00:00 29.7 12 Noroeste 25 Oeste 0 -- -- 34
2018-07-25 20:00:00 31.6 15 Oeste 26 Oeste 0 -- -- 30
2018-07-25 19:00:00 32.1 13 Noroeste 27 Oeste 0 -- -- 28
2018-07-25 18:00:00 32.4 14 Oeste 30 Oeste 0 -- -- 28
2018-07-25 17:00:00 32.7 9 Noroeste 28 Noroeste 0 -- -- 29
2018-07-25 16:00:00 31.9 14 Oeste 26 Oeste 0 -- -- 30
2018-07-25 15:00:00 31.3 13 Oeste 30 Noroeste 0 -- -- 34
2018-07-25 14:00:00 29.6 7 Noroeste 28 Oeste 0 -- -- 39
2018-07-25 13:00:00 28.7 10 Sudoeste 24 Oeste 0 -- -- 42
2018-07-25 12:00:00 26 8 Noroeste 15 Noroeste 0 -- -- 51
2018-07-25 11:00:00 23.5 5 Noroeste 9 Noroeste 0 -- -- 62
2018-07-25 10:00:00 20.5 3 Oeste 8 Sudoeste 0 -- -- 73
2018-07-25 09:00:00 16.4 0 Calma 4 Sur 0 -- -- 85
2018-07-25 08:00:00 12.5 2 Sur 4 Sur 0 -- -- 94
2018-07-25 07:00:00 12.6 2 Sudeste 5 Sudeste 0 -- -- 91
2018-07-25 06:00:00 13.6 4 Sudeste 5 Sudeste 0 -- -- 91
2018-07-25 05:00:00 13.9 0 Calma 3 Sudeste 0 -- -- 88
2018-07-25 04:00:00 15.2 2 Este 7 Este 0 -- -- 86
2018-07-25 03:00:00 17.2 0 Calma 10 Noroeste 0 -- -- 81
2018-07-25 02:00:00 19 0 Calma 14 Oeste 0 -- -- 78
2018-07-25 01:00:00 20.5 5 Oeste 15 Oeste 0 -- -- 71
2018-07-25 00:00:00 22.2 10 Oeste 18 Oeste 0 -- -- 64
2018-07-24 23:00:00 23.7 9 Oeste 19 Oeste 0 -- -- 56
2018-07-24 22:00:00 26 12 Oeste 21 Oeste 0 -- -- 44
2018-07-24 21:00:00 29.6 13 Oeste 26 Oeste 0 -- -- 34
2018-07-24 20:00:00 31.2 13 Oeste 22 Oeste 0 -- -- 31
2018-07-24 19:00:00 32 12 Oeste 27 Oeste 0 -- -- 27
2018-07-24 18:00:00 32 14 Oeste 25 Sudoeste 0 -- -- 26
2018-07-24 17:00:00 31.9 13 Oeste 24 Oeste 0 -- -- 26
2018-07-24 16:00:00 31.1 12 Oeste 24 Oeste 0 -- -- 27
2018-07-24 15:00:00 30 10 Oeste 25 Oeste 0 -- -- 28
2018-07-24 14:00:00 29.1 6 Sudoeste 17 Sudoeste 0 -- -- 29
2018-07-24 13:00:00 26.5 10 Oeste 18 Sudoeste 0 -- -- 44
2018-07-24 12:00:00 24.3 7 Sudoeste 15 Oeste 0 -- -- 54
2018-07-24 11:00:00 21.4 6 Oeste 14 Sudoeste 0 -- -- 65
2018-07-24 10:00:00 19.3 4 Sudoeste 13 Oeste 0 -- -- 72
2018-07-24 09:00:00 15.2 3 Noroeste 5 Norte 0 -- -- 82
2018-07-24 08:00:00 11 0 Calma 5 Nordeste 0 -- -- 93
2018-07-24 07:00:00 11.2 0 Calma 2 Nordeste 0 -- -- 91
2018-07-24 06:00:00 12.6 0 Calma 3 Nordeste 0 -- -- 87
2018-07-24 05:00:00 13.3 0 Calma 5 Nordeste 0 -- -- 84
2018-07-24 04:00:00 14.7 0 Calma 4 Nordeste 0 -- -- 81
2018-07-24 03:00:00 16.4 0 Calma 6 Oeste 0 -- -- 78
2018-07-24 02:00:00 18.2 5 Oeste 13 Oeste 0 -- -- 71
2018-07-24 01:00:00 19.9 9 Oeste 17 Oeste 0 -- -- 65
2018-07-24 00:00:00 21.6 6 Oeste 22 Oeste 0 -- -- 59
2018-07-23 23:00:00 23.4 9 Oeste 26 Oeste 0 -- -- 54
2018-07-23 22:00:00 26.8 15 Oeste 32 Oeste 0 -- -- 47
2018-07-23 21:00:00 32.3 11 Sur 22 Sudoeste 0 -- -- 26
2018-07-23 20:00:00 33.2 13 Sur 27 Sur 0 -- -- 25
2018-07-23 19:00:00 34.2 12 Sur 28 Sur 0 -- -- 25
2018-07-23 18:00:00 34.8 10 Sur 31 Sur 0 -- -- 22
2018-07-23 17:00:00 34.6 13 Sur 28 Sudoeste 0 -- -- 22
2018-07-23 16:00:00 33.9 15 Sur 26 Sur 0 -- -- 24
2018-07-23 15:00:00 33.1 17 Sur 31 Sur 0 -- -- 27
2018-07-23 14:00:00 31.5 14 Sudoeste 28 Sudoeste 0 -- -- 31
2018-07-23 13:00:00 31 14 Sur 27 Sur 0 -- -- 33
2018-07-23 12:00:00 29.3 10 Sur 23 Sur 0 -- -- 37
2018-07-23 11:00:00 27.6 13 Sur 24 Sudeste 0 -- -- 46
2018-07-23 10:00:00 23.7 2 Noroeste 6 Oeste 0 -- -- 52
2018-07-23 09:00:00 17.4 2 Norte 4 Nordeste 0 -- -- 78
2018-07-23 08:00:00 13.3 4 Este 5 Este 0 -- -- 89
2018-07-23 07:00:00 12.8 0 Calma 5 Nordeste 0 -- -- 90
2018-07-23 06:00:00 13.7 2 Este 4 Este 0 -- -- 83
2018-07-23 05:00:00 14.6 0 Calma 3 Nordeste 0 -- -- 78
2018-07-23 04:00:00 15.7 0 Calma 2 Nordeste 0 -- -- 71
2018-07-23 03:00:00 16.4 0 Calma 3 Nordeste 0 -- -- 68
2018-07-23 02:00:00 17.6 2 Este 5 Este 0 -- -- 65
2018-07-23 01:00:00 19.4 2 Nordeste 6 Nordeste 0 -- -- 59
2018-07-23 00:00:00 21.6 3 Nordeste 7 Norte 0 -- -- 54
2018-07-22 23:00:00 23.9 3 Nordeste 12 Oeste 0 -- -- 46
2018-07-22 22:00:00 27.9 6 Sudoeste 16 Oeste 0 -- -- 37
2018-07-22 21:00:00 32.3 11 Oeste 23 Noroeste 0 -- -- 29
2018-07-22 20:00:00 33.1 13 Oeste 25 Oeste 0 -- -- 28
2018-07-22 19:00:00 33.5 16 Oeste 27 Oeste 0 -- -- 27
2018-07-22 18:00:00 33.8 14 Oeste 26 Oeste 0 -- -- 26
2018-07-22 17:00:00 33.7 13 Oeste 25 Oeste 0 -- -- 26
2018-07-22 16:00:00 33.2 13 Oeste 35 Oeste 0 -- -- 26
2018-07-22 15:00:00 32.8 9 Oeste 22 Oeste 0 -- -- 28
2018-07-22 14:00:00 30.9 9 Oeste 18 Sudoeste 0 -- -- 32
2018-07-22 13:00:00 28.8 6 Oeste 15 Sudoeste 0 -- -- 44
2018-07-22 12:00:00 25.9 8 Sur 14 Sudoeste 0 -- -- 52
2018-07-22 11:00:00 22.5 6 Oeste 13 Noroeste 0 -- -- 62
2018-07-22 10:00:00 20.5 3 Sudoeste 10 Oeste 0 -- -- 66
2018-07-22 09:00:00 17.4 0 Calma 4 Este 0 -- -- 70
2018-07-22 08:00:00 12.5 3 Sudeste 4 Sudeste 0 -- -- 85
2018-07-22 07:00:00 11.9 0 Calma 4 Sudeste 0 -- -- 84
2018-07-22 06:00:00 13.1 2 Nordeste 5 Sudeste 0 -- -- 80
2018-07-22 05:00:00 14.4 3 Este 4 Nordeste 0 -- -- 77
2018-07-22 04:00:00 16.3 0 Calma 12 Norte 0 -- -- 71
2018-07-22 03:00:00 19.7 6 Norte 14 Norte 0 -- -- 59
2018-07-22 02:00:00 21.1 7 Norte 17 Noroeste 0 -- -- 53
2018-07-22 01:00:00 22.9 7 Norte 17 Sudoeste 0 -- -- 49
2018-07-22 00:00:00 24.7 10 Noroeste 29 Norte 0 -- -- 43
2018-07-21 23:00:00 26.3 8 Noroeste 22 Noroeste 0 -- -- 39
2018-07-21 22:00:00 27.8 8 Noroeste 22 Oeste 0 -- -- 30
2018-07-21 21:00:00 31.2 13 Noroeste 23 Noroeste 0 -- -- 26
2018-07-21 20:00:00 32.4 12 Noroeste 28 Oeste 0 -- -- 24
2018-07-21 19:00:00 33.4 18 Oeste 28 Oeste 0 -- -- 25
2018-07-21 18:00:00 34.1 9 Oeste 25 Noroeste 0 -- -- 25
2018-07-21 17:00:00 33.2 8 Oeste 24 Noroeste 0 -- -- 25
2018-07-21 16:00:00 32.3 8 Noroeste 22 Noroeste 0 -- -- 26
2018-07-21 15:00:00 31.7 4 Nordeste 19 Norte 0 -- -- 30
2018-07-21 14:00:00 29.7 7 Oeste 21 Noroeste 0 -- -- 35
2018-07-21 13:00:00 28.1 9 Norte 16 Norte 0 -- -- 44
2018-07-21 12:00:00 25.3 8 Oeste 18 Noroeste 0 -- -- 54
2018-07-21 11:00:00 22.2 5 Oeste 11 Oeste 0 -- -- 64
2018-07-21 10:00:00 18.9 4 Oeste 9 Este 0 -- -- 76
2018-07-21 09:00:00 16.4 0 Calma 4 Este 0 -- -- 85
2018-07-21 08:00:00 13.2 0 Calma 4 Sudeste 0 -- -- 93
2018-07-21 07:00:00 11.9 3 Sudeste 8 Sudeste 0 -- -- 92
2018-07-21 06:00:00 12.9 2 Este 5 Este 0 -- -- 94
2018-07-21 05:00:00 14.3 0 Calma 4 Sur 0 -- -- 91
2018-07-21 04:00:00 15.9 0 Calma 7 Noroeste 0 -- -- 81
2018-07-21 03:00:00 17.6 0 Calma 13 Noroeste 0 -- -- 77
2018-07-21 02:00:00 18.9 5 Noroeste 14 Noroeste 0 -- -- 71
2018-07-21 01:00:00 21 4 Noroeste 25 Sudoeste 0 -- -- 61
2018-07-21 00:00:00 22.6 10 Sudoeste 28 Noroeste 0 -- -- 55
2018-07-20 23:00:00 24.7 18 Noroeste 39 Noroeste 0 -- -- 48
2018-07-20 22:00:00 26.5 12 Noroeste 26 Oeste 0 -- -- 41
2018-07-20 21:00:00 29.4 14 Noroeste 28 Norte 0 -- -- 34
2018-07-20 20:00:00 30.8 15 Noroeste 30 Oeste 0 -- -- 30
2018-07-20 19:00:00 31.8 13 Noroeste 29 Noroeste 0 -- -- 29
2018-07-20 18:00:00 31.4 14 Noroeste 30 Noroeste 0 -- -- 29
2018-07-20 17:00:00 31 13 Noroeste 31 Norte 0 -- -- 32
2018-07-20 16:00:00 30.4 16 Norte 33 Norte 0 -- -- 34
2018-07-20 15:00:00 29.3 14 Noroeste 28 Oeste 0 -- -- 41
2018-07-20 14:00:00 27.6 9 Noroeste 39 Norte 0 -- -- 46
2018-07-20 13:00:00 25.4 13 Norte 22 Noroeste 0 -- -- 54
2018-07-20 12:00:00 23.6 7 Noroeste 19 Noroeste 0 -- -- 61
2018-07-20 11:00:00 21.1 13 Noroeste 22 Noroeste 0 -- -- 69
2018-07-20 10:00:00 20.8 9 Oeste 19 Oeste 0 -- -- 71
2018-07-20 09:00:00 19.1 5 Noroeste 17 Noroeste 0 -- -- 78
2018-07-20 08:00:00 18.2 10 Noroeste 17 Noroeste 0 -- -- 82
2018-07-20 07:00:00 18 8 Norte 17 Norte 0 -- -- 84
2018-07-20 06:00:00 17.1 4 Noroeste 10 Noroeste 0 -- -- 87
2018-07-20 05:00:00 15.7 0 Calma 6 Noroeste 0 -- -- 86
2018-07-20 04:00:00 16.6 0 Calma 8 Norte 0 -- -- 82
2018-07-20 03:00:00 18.6 4 Norte 15 Noroeste 0 -- -- 76
2018-07-20 02:00:00 20.1 10 Norte 26 Norte 0 -- -- 70
2018-07-20 01:00:00 21.4 2 Noroeste 13 Este 0 -- -- 62
2018-07-20 00:00:00 23.2 7 Oeste 31 Norte 0 -- -- 54